Airfield :
LOGIN :

Register | Disclaimer

   EN    FR    IT 

 










Legend :    VFR   Marginal VFR   IFR   Intensive IFR   Very Intensive IFR
Visi :
Ceiling :
>= 8 km
>= 3000ft
5 to 8 km
1000 to 3000 ft
1500m to 5 km
500 to 1000 ft
800 to 1500m
200 to 500 ft
< 800m
< 200 ft
Symbols :   Thunderstorms  Fog  Heavy snow  Heavy precipitations  Wind > 20 kt
SIGMETs :     Misc.  Thunderstorms  Icing  Turbulence  Mountain Waves  Volcanic Ashes






- Airport Elevation : 158 ft
- IATA code : QAR


EHDL - Deelen Airbase

CURRENT METAR :
  • 110225Z AUTO 19014KT 150V250 6000 DZ FEW007 OVC012 06/05 Q1009 GRN

EXPIRED METARs :
  • 110155Z AUTO 19015KT 120V240 9999 BKN013 OVC015 06/04 Q1009 GRN
  • 110125Z AUTO 19014KT 140V240 9999 OVC015 06/04 Q1009 WHT
  • 110055Z AUTO 19017G27KT 150V240 6000 +DZ BKN017 OVC020 05/04 Q1009 WHT
  • 110025Z AUTO 19019KT 140V250 6000 DZ BKN021 OVC024 06/03 Q1009 WHT
  • 102355Z AUTO 19018KT 130V250 9999 FEW018 OVC023 06/02 Q1009 WHT

TAF TAF EHDL
Valid from the 10 at 18:00 until the 11 at 06:00 UTC


101728Z 1018/1106 18017G30KT 9999 FEW045 BKN080
BECMG 1023/1102 SCT018 BKN020
BECMG 1101/1104 21010KT
TEMPO 1101/1106 4500 -RADZ SCT012 BKN015
PROB40
TEMPO 1104/1106 2500 DZRA SCT008 BKN012



MET'MAP, your aeronautical weather chart ! - Copyright ORBIFLY December 2007 - Disclaimer

ORBIFLY MET'MAP TEAM :

Programming & Development : Alexandra Zaïnal
Concept & original design : Baudouin d'Aumeries
Assistance for programming : Marc-Olivier Méhu
Technical & hardware support : Manuel Goepfert

Contact : metmap@orbifly.com




SOURCES & CREDITS :

   NOAA